sensor_id;sensor_type;location;lat;lon;timestamp;temperature;humidity
11136;DHT22;5622;50.840;4.948;2023-07-30T00:00:34;16.30;99.90
11136;DHT22;5622;50.840;4.948;2023-07-30T00:03:01;16.30;99.90
11136;DHT22;5622;50.840;4.948;2023-07-30T00:05:28;16.30;99.90
11136;DHT22;5622;50.840;4.948;2023-07-30T00:07:55;16.30;99.90
11136;DHT22;5622;50.840;4.948;2023-07-30T00:10:22;16.30;99.90
11136;DHT22;5622;50.840;4.948;2023-07-30T00:12:51;16.30;99.90
11136;DHT22;5622;50.840;4.948;2023-07-30T00:15:18;16.20;99.90
11136;DHT22;5622;50.840;4.948;2023-07-30T00:17:45;16.20;99.90
11136;DHT22;5622;50.840;4.948;2023-07-30T00:20:12;16.30;99.90
11136;DHT22;5622;50.840;4.948;2023-07-30T00:22:39;16.20;99.90
11136;DHT22;5622;50.840;4.948;2023-07-30T00:25:07;16.20;99.90
11136;DHT22;5622;50.840;4.948;2023-07-30T00:27:34;16.20;99.90
11136;DHT22;5622;50.840;4.948;2023-07-30T00:30:03;16.10;99.90
11136;DHT22;5622;50.840;4.948;2023-07-30T00:32:30;16.10;99.90
11136;DHT22;5622;50.840;4.948;2023-07-30T00:34:57;16.10;99.90
11136;DHT22;5622;50.840;4.948;2023-07-30T00:37:24;16.10;99.90
11136;DHT22;5622;50.840;4.948;2023-07-30T00:39:51;16.10;99.90
11136;DHT22;5622;50.840;4.948;2023-07-30T00:42:18;16.00;99.90
11136;DHT22;5622;50.840;4.948;2023-07-30T00:44:45;16.00;99.90
11136;DHT22;5622;50.840;4.948;2023-07-30T00:47:14;16.00;99.90
11136;DHT22;5622;50.840;4.948;2023-07-30T00:49:41;16.00;99.90
11136;DHT22;5622;50.840;4.948;2023-07-30T00:52:08;16.00;99.90
11136;DHT22;5622;50.840;4.948;2023-07-30T00:54:35;16.00;99.90
11136;DHT22;5622;50.840;4.948;2023-07-30T00:57:03;16.00;99.90
11136;DHT22;5622;50.840;4.948;2023-07-30T00:59:30;16.10;99.90
11136;DHT22;5622;50.840;4.948;2023-07-30T01:01:57;16.00;99.90
11136;DHT22;5622;50.840;4.948;2023-07-30T01:04:27;16.00;99.90
11136;DHT22;5622;50.840;4.948;2023-07-30T01:06:54;16.10;99.90
11136;DHT22;5622;50.840;4.948;2023-07-30T01:09:21;16.10;99.90
11136;DHT22;5622;50.840;4.948;2023-07-30T01:11:49;16.10;99.90
11136;DHT22;5622;50.840;4.948;2023-07-30T01:14:18;16.20;99.90
11136;DHT22;5622;50.840;4.948;2023-07-30T01:16:46;16.20;99.90
11136;DHT22;5622;50.840;4.948;2023-07-30T01:19:14;16.20;99.90
11136;DHT22;5622;50.840;4.948;2023-07-30T01:21:42;16.30;99.90
11136;DHT22;5622;50.840;4.948;2023-07-30T01:24:09;16.30;99.90
11136;DHT22;5622;50.840;4.948;2023-07-30T01:26:40;16.30;99.90
11136;DHT22;5622;50.840;4.948;2023-07-30T01:29:13;16.40;99.90
11136;DHT22;5622;50.840;4.948;2023-07-30T01:31:43;16.40;99.90
11136;DHT22;5622;50.840;4.948;2023-07-30T01:34:13;16.40;99.90
11136;DHT22;5622;50.840;4.948;2023-07-30T01:36:42;16.40;99.90
11136;DHT22;5622;50.840;4.948;2023-07-30T01:39:10;16.40;99.90
11136;DHT22;5622;50.840;4.948;2023-07-30T01:41:38;16.40;99.90
11136;DHT22;5622;50.840;4.948;2023-07-30T01:44:05;16.40;99.90
11136;DHT22;5622;50.840;4.948;2023-07-30T01:46:32;16.50;99.90
11136;DHT22;5622;50.840;4.948;2023-07-30T01:48:59;16.50;99.90
11136;DHT22;5622;50.840;4.948;2023-07-30T01:51:26;16.50;99.90
11136;DHT22;5622;50.840;4.948;2023-07-30T01:53:54;16.50;99.90
11136;DHT22;5622;50.840;4.948;2023-07-30T01:56:21;16.50;99.90
11136;DHT22;5622;50.840;4.948;2023-07-30T01:58:48;16.60;99.90
11136;DHT22;5622;50.840;4.948;2023-07-30T02:01:16;16.60;99.90
11136;DHT22;5622;50.840;4.948;2023-07-30T02:03:43;16.60;99.90
11136;DHT22;5622;50.840;4.948;2023-07-30T02:06:10;16.60;99.90
11136;DHT22;5622;50.840;4.948;2023-07-30T02:08:37;16.60;99.90
11136;DHT22;5622;50.840;4.948;2023-07-30T02:11:06;16.60;99.90
11136;DHT22;5622;50.840;4.948;2023-07-30T02:13:33;16.60;99.90
11136;DHT22;5622;50.840;4.948;2023-07-30T02:16:00;16.60;99.90
11136;DHT22;5622;50.840;4.948;2023-07-30T02:18:27;16.60;99.90
11136;DHT22;5622;50.840;4.948;2023-07-30T02:20:54;16.60;99.90
11136;DHT22;5622;50.840;4.948;2023-07-30T02:23:21;16.60;99.90
11136;DHT22;5622;50.840;4.948;2023-07-30T02:25:48;16.60;99.90
11136;DHT22;5622;50.840;4.948;2023-07-30T02:28:17;16.70;99.90
11136;DHT22;5622;50.840;4.948;2023-07-30T02:30:44;16.60;99.90
11136;DHT22;5622;50.840;4.948;2023-07-30T02:33:11;16.60;99.90
11136;DHT22;5622;50.840;4.948;2023-07-30T02:35:38;16.60;99.90
11136;DHT22;5622;50.840;4.948;2023-07-30T02:38:05;16.60;99.90
11136;DHT22;5622;50.840;4.948;2023-07-30T02:40:32;16.60;99.90
11136;DHT22;5622;50.840;4.948;2023-07-30T02:42:59;16.60;99.90
11136;DHT22;5622;50.840;4.948;2023-07-30T02:45:27;16.50;99.90
11136;DHT22;5622;50.840;4.948;2023-07-30T02:47:54;16.50;99.90
11136;DHT22;5622;50.840;4.948;2023-07-30T02:50:21;16.50;99.90
11136;DHT22;5622;50.840;4.948;2023-07-30T02:52:48;16.50;99.90
11136;DHT22;5622;50.840;4.948;2023-07-30T02:55:15;16.50;99.90
11136;DHT22;5622;50.840;4.948;2023-07-30T02:57:43;16.40;99.90
11136;DHT22;5622;50.840;4.948;2023-07-30T03:00:10;16.40;99.90
11136;DHT22;5622;50.840;4.948;2023-07-30T03:02:39;16.40;99.90
11136;DHT22;5622;50.840;4.948;2023-07-30T03:05:07;16.40;99.90
11136;DHT22;5622;50.840;4.948;2023-07-30T03:07:34;16.40;99.90
11136;DHT22;5622;50.840;4.948;2023-07-30T03:10:02;16.30;99.90
11136;DHT22;5622;50.840;4.948;2023-07-30T03:12:29;16.30;99.90
11136;DHT22;5622;50.840;4.948;2023-07-30T03:14:56;16.30;99.90
11136;DHT22;5622;50.840;4.948;2023-07-30T03:17:23;16.20;99.90
11136;DHT22;5622;50.840;4.948;2023-07-30T03:19:51;16.20;99.90
11136;DHT22;5622;50.840;4.948;2023-07-30T03:22:18;16.20;99.90
11136;DHT22;5622;50.840;4.948;2023-07-30T03:24:46;16.20;99.90
11136;DHT22;5622;50.840;4.948;2023-07-30T03:27:13;16.10;99.90
11136;DHT22;5622;50.840;4.948;2023-07-30T03:29:40;16.10;99.90
11136;DHT22;5622;50.840;4.948;2023-07-30T03:32:08;16.10;99.90
11136;DHT22;5622;50.840;4.948;2023-07-30T03:34:34;16.10;99.90
11136;DHT22;5622;50.840;4.948;2023-07-30T03:37:03;16.10;99.90
11136;DHT22;5622;50.840;4.948;2023-07-30T03:39:30;16.10;99.90
11136;DHT22;5622;50.840;4.948;2023-07-30T03:41:57;16.00;99.90
11136;DHT22;5622;50.840;4.948;2023-07-30T03:44:24;16.00;99.90
11136;DHT22;5622;50.840;4.948;2023-07-30T03:46:52;16.00;99.90
11136;DHT22;5622;50.840;4.948;2023-07-30T03:49:19;16.00;99.90
11136;DHT22;5622;50.840;4.948;2023-07-30T03:51:46;16.00;99.90
11136;DHT22;5622;50.840;4.948;2023-07-30T03:54:15;15.90;99.90
11136;DHT22;5622;50.840;4.948;2023-07-30T03:56:42;15.90;99.90
11136;DHT22;5622;50.840;4.948;2023-07-30T03:59:09;15.90;99.90
11136;DHT22;5622;50.840;4.948;2023-07-30T04:01:36;15.80;99.90
11136;DHT22;5622;50.840;4.948;2023-07-30T04:04:03;15.80;99.90
11136;DHT22;5622;50.840;4.948;2023-07-30T04:06:30;15.80;99.90
11136;DHT22;5622;50.840;4.948;2023-07-30T04:08:57;15.80;99.90
11136;DHT22;5622;50.840;4.948;2023-07-30T04:11:26;15.80;99.90
11136;DHT22;5622;50.840;4.948;2023-07-30T04:13:53;15.80;99.90
11136;DHT22;5622;50.840;4.948;2023-07-30T04:16:20;15.80;99.90
11136;DHT22;5622;50.840;4.948;2023-07-30T04:18:47;15.70;99.90
11136;DHT22;5622;50.840;4.948;2023-07-30T04:21:14;15.70;99.90
11136;DHT22;5622;50.840;4.948;2023-07-30T04:23:42;15.70;99.90
11136;DHT22;5622;50.840;4.948;2023-07-30T04:26:09;15.80;99.90
11136;DHT22;5622;50.840;4.948;2023-07-30T04:28:37;15.80;99.90
11136;DHT22;5622;50.840;4.948;2023-07-30T04:31:04;15.70;99.90
11136;DHT22;5622;50.840;4.948;2023-07-30T04:33:31;15.70;99.90
11136;DHT22;5622;50.840;4.948;2023-07-30T04:35:58;15.80;99.90
11136;DHT22;5622;50.840;4.948;2023-07-30T04:38:25;15.80;99.90
11136;DHT22;5622;50.840;4.948;2023-07-30T04:40:52;15.80;99.90
11136;DHT22;5622;50.840;4.948;2023-07-30T04:43:19;15.80;99.90
11136;DHT22;5622;50.840;4.948;2023-07-30T04:45:48;15.80;99.90
11136;DHT22;5622;50.840;4.948;2023-07-30T04:48:15;15.80;99.90
11136;DHT22;5622;50.840;4.948;2023-07-30T04:50:42;15.80;99.90
11136;DHT22;5622;50.840;4.948;2023-07-30T04:53:09;15.80;99.90
11136;DHT22;5622;50.840;4.948;2023-07-30T04:55:36;15.80;99.90
11136;DHT22;5622;50.840;4.948;2023-07-30T04:58:04;15.90;99.90
11136;DHT22;5622;50.840;4.948;2023-07-30T05:00:32;15.90;99.90
11136;DHT22;5622;50.840;4.948;2023-07-30T05:03:00;15.90;99.90
11136;DHT22;5622;50.840;4.948;2023-07-30T05:05:27;15.90;99.90
11136;DHT22;5622;50.840;4.948;2023-07-30T05:07:54;15.90;99.90
11136;DHT22;5622;50.840;4.948;2023-07-30T05:10:21;15.90;99.90
11136;DHT22;5622;50.840;4.948;2023-07-30T05:12:48;15.90;99.90
11136;DHT22;5622;50.840;4.948;2023-07-30T05:15:15;15.90;99.90
11136;DHT22;5622;50.840;4.948;2023-07-30T05:17:43;16.00;99.90
11136;DHT22;5622;50.840;4.948;2023-07-30T05:20:11;16.00;99.90
11136;DHT22;5622;50.840;4.948;2023-07-30T05:22:39;16.00;99.90
11136;DHT22;5622;50.840;4.948;2023-07-30T05:25:06;16.00;99.90
11136;DHT22;5622;50.840;4.948;2023-07-30T05:27:34;16.10;99.90
11136;DHT22;5622;50.840;4.948;2023-07-30T05:30:01;16.10;99.90
11136;DHT22;5622;50.840;4.948;2023-07-30T05:32:29;16.00;99.90
11136;DHT22;5622;50.840;4.948;2023-07-30T05:34:56;16.10;99.90
11136;DHT22;5622;50.840;4.948;2023-07-30T05:37:24;16.10;99.90
11136;DHT22;5622;50.840;4.948;2023-07-30T05:39:51;16.10;99.90
11136;DHT22;5622;50.840;4.948;2023-07-30T05:42:18;16.10;99.90
11136;DHT22;5622;50.840;4.948;2023-07-30T05:44:46;16.10;99.90
11136;DHT22;5622;50.840;4.948;2023-07-30T05:47:13;16.10;99.90
11136;DHT22;5622;50.840;4.948;2023-07-30T05:49:40;16.10;99.90
11136;DHT22;5622;50.840;4.948;2023-07-30T05:52:07;16.20;99.90
11136;DHT22;5622;50.840;4.948;2023-07-30T05:54:36;16.20;99.90
11136;DHT22;5622;50.840;4.948;2023-07-30T05:57:03;16.20;99.90
11136;DHT22;5622;50.840;4.948;2023-07-30T05:59:30;16.20;99.90
11136;DHT22;5622;50.840;4.948;2023-07-30T06:02:02;16.20;99.90
11136;DHT22;5622;50.840;4.948;2023-07-30T06:04:29;16.20;99.90
11136;DHT22;5622;50.840;4.948;2023-07-30T06:06:57;16.20;99.90
11136;DHT22;5622;50.840;4.948;2023-07-30T06:09:24;16.20;99.90
11136;DHT22;5622;50.840;4.948;2023-07-30T06:11:53;16.30;99.90
11136;DHT22;5622;50.840;4.948;2023-07-30T06:14:20;16.20;99.90
11136;DHT22;5622;50.840;4.948;2023-07-30T06:16:47;16.20;99.90
11136;DHT22;5622;50.840;4.948;2023-07-30T06:19:14;16.30;99.90
11136;DHT22;5622;50.840;4.948;2023-07-30T06:21:41;16.30;99.90
11136;DHT22;5622;50.840;4.948;2023-07-30T06:24:08;16.30;99.90
11136;DHT22;5622;50.840;4.948;2023-07-30T06:26:35;16.30;99.90
11136;DHT22;5622;50.840;4.948;2023-07-30T06:29:04;16.30;99.90
11136;DHT22;5622;50.840;4.948;2023-07-30T06:31:31;16.30;99.90
11136;DHT22;5622;50.840;4.948;2023-07-30T06:33:58;16.30;99.90
11136;DHT22;5622;50.840;4.948;2023-07-30T06:36:25;16.40;99.90
11136;DHT22;5622;50.840;4.948;2023-07-30T06:38:52;16.40;99.90
11136;DHT22;5622;50.840;4.948;2023-07-30T06:41:19;16.40;99.90
11136;DHT22;5622;50.840;4.948;2023-07-30T06:43:46;16.40;99.90
11136;DHT22;5622;50.840;4.948;2023-07-30T06:46:15;16.40;99.90
11136;DHT22;5622;50.840;4.948;2023-07-30T06:48:42;16.40;99.90
11136;DHT22;5622;50.840;4.948;2023-07-30T06:51:10;16.50;99.90
11136;DHT22;5622;50.840;4.948;2023-07-30T06:53:38;16.40;99.90
11136;DHT22;5622;50.840;4.948;2023-07-30T06:56:05;16.50;99.90
11136;DHT22;5622;50.840;4.948;2023-07-30T06:58:32;16.50;99.90
11136;DHT22;5622;50.840;4.948;2023-07-30T07:00:59;16.50;99.90
11136;DHT22;5622;50.840;4.948;2023-07-30T07:03:28;16.50;99.90
11136;DHT22;5622;50.840;4.948;2023-07-30T07:05:55;16.50;99.90
11136;DHT22;5622;50.840;4.948;2023-07-30T07:08:22;16.60;99.90
11136;DHT22;5622;50.840;4.948;2023-07-30T07:10:50;16.60;99.90
11136;DHT22;5622;50.840;4.948;2023-07-30T07:13:17;16.60;99.90
11136;DHT22;5622;50.840;4.948;2023-07-30T07:15:44;16.70;99.90
11136;DHT22;5622;50.840;4.948;2023-07-30T07:18:11;16.70;99.90
11136;DHT22;5622;50.840;4.948;2023-07-30T07:20:40;16.70;99.90
11136;DHT22;5622;50.840;4.948;2023-07-30T07:23:07;16.70;99.90
11136;DHT22;5622;50.840;4.948;2023-07-30T07:25:34;16.80;99.90
11136;DHT22;5622;50.840;4.948;2023-07-30T07:28:03;17.00;99.90
11136;DHT22;5622;50.840;4.948;2023-07-30T07:30:30;17.20;99.90
11136;DHT22;5622;50.840;4.948;2023-07-30T07:32:57;17.40;99.90
11136;DHT22;5622;50.840;4.948;2023-07-30T07:35:24;17.60;99.90
11136;DHT22;5622;50.840;4.948;2023-07-30T07:37:53;17.70;99.90
11136;DHT22;5622;50.840;4.948;2023-07-30T07:40:20;17.90;99.90
11136;DHT22;5622;50.840;4.948;2023-07-30T07:42:47;17.90;99.90
11136;DHT22;5622;50.840;4.948;2023-07-30T07:45:14;18.00;99.90
11136;DHT22;5622;50.840;4.948;2023-07-30T07:47:41;18.00;99.90
11136;DHT22;5622;50.840;4.948;2023-07-30T07:50:09;18.10;99.90
11136;DHT22;5622;50.840;4.948;2023-07-30T07:52:36;18.20;99.90
11136;DHT22;5622;50.840;4.948;2023-07-30T07:55:05;18.40;99.90
11136;DHT22;5622;50.840;4.948;2023-07-30T07:57:33;18.60;99.90
11136;DHT22;5622;50.840;4.948;2023-07-30T08:00:00;18.70;99.90
11136;DHT22;5622;50.840;4.948;2023-07-30T08:02:30;18.90;99.90
11136;DHT22;5622;50.840;4.948;2023-07-30T08:04:57;19.00;99.90
11136;DHT22;5622;50.840;4.948;2023-07-30T08:07:24;19.20;99.90
11136;DHT22;5622;50.840;4.948;2023-07-30T08:09:51;19.40;99.90
11136;DHT22;5622;50.840;4.948;2023-07-30T08:12:21;19.40;99.90
11136;DHT22;5622;50.840;4.948;2023-07-30T08:14:48;19.60;99.90
11136;DHT22;5622;50.840;4.948;2023-07-30T08:17:16;19.70;99.90
11136;DHT22;5622;50.840;4.948;2023-07-30T08:19:43;19.80;99.90
11136;DHT22;5622;50.840;4.948;2023-07-30T08:22:10;20.00;99.90
11136;DHT22;5622;50.840;4.948;2023-07-30T08:24:37;19.90;99.90
11136;DHT22;5622;50.840;4.948;2023-07-30T08:27:04;20.00;99.90
11136;DHT22;5622;50.840;4.948;2023-07-30T08:29:33;20.00;99.90
11136;DHT22;5622;50.840;4.948;2023-07-30T08:32:00;20.10;99.90
11136;DHT22;5622;50.840;4.948;2023-07-30T08:34:27;20.30;99.90
11136;DHT22;5622;50.840;4.948;2023-07-30T08:36:54;20.50;99.90
11136;DHT22;5622;50.840;4.948;2023-07-30T08:39:21;20.50;99.90
11136;DHT22;5622;50.840;4.948;2023-07-30T08:41:48;20.50;99.90
11136;DHT22;5622;50.840;4.948;2023-07-30T08:44:15;20.40;99.90
11136;DHT22;5622;50.840;4.948;2023-07-30T08:46:44;20.30;99.90
11136;DHT22;5622;50.840;4.948;2023-07-30T08:49:11;20.30;99.90
11136;DHT22;5622;50.840;4.948;2023-07-30T08:51:39;20.20;99.90
11136;DHT22;5622;50.840;4.948;2023-07-30T08:54:09;20.10;99.90
11136;DHT22;5622;50.840;4.948;2023-07-30T08:56:36;20.00;99.90
11136;DHT22;5622;50.840;4.948;2023-07-30T08:59:04;19.90;99.90
11136;DHT22;5622;50.840;4.948;2023-07-30T09:01:37;19.90;99.90
11136;DHT22;5622;50.840;4.948;2023-07-30T09:04:06;19.90;99.90
11136;DHT22;5622;50.840;4.948;2023-07-30T09:06:34;19.70;99.90
11136;DHT22;5622;50.840;4.948;2023-07-30T09:09:01;19.70;99.90
11136;DHT22;5622;50.840;4.948;2023-07-30T09:11:29;19.60;99.90
11136;DHT22;5622;50.840;4.948;2023-07-30T09:13:57;19.50;99.90
11136;DHT22;5622;50.840;4.948;2023-07-30T09:16:25;19.50;99.90
11136;DHT22;5622;50.840;4.948;2023-07-30T09:18:53;19.50;99.90
11136;DHT22;5622;50.840;4.948;2023-07-30T09:21:29;19.50;99.90
11136;DHT22;5622;50.840;4.948;2023-07-30T09:23:56;19.50;99.90
11136;DHT22;5622;50.840;4.948;2023-07-30T09:26:26;19.60;99.90
11136;DHT22;5622;50.840;4.948;2023-07-30T09:28:55;19.60;99.90
11136;DHT22;5622;50.840;4.948;2023-07-30T09:31:22;19.50;99.90
11136;DHT22;5622;50.840;4.948;2023-07-30T09:33:49;19.50;99.90
11136;DHT22;5622;50.840;4.948;2023-07-30T09:36:20;19.40;99.90
11136;DHT22;5622;50.840;4.948;2023-07-30T09:38:47;19.50;99.90
11136;DHT22;5622;50.840;4.948;2023-07-30T09:41:15;19.50;99.90
11136;DHT22;5622;50.840;4.948;2023-07-30T09:43:42;19.60;99.90
11136;DHT22;5622;50.840;4.948;2023-07-30T09:46:09;19.60;99.90
11136;DHT22;5622;50.840;4.948;2023-07-30T09:48:36;19.70;99.90
11136;DHT22;5622;50.840;4.948;2023-07-30T09:51:04;19.60;99.90
11136;DHT22;5622;50.840;4.948;2023-07-30T09:53:33;19.50;99.90
11136;DHT22;5622;50.840;4.948;2023-07-30T09:56:01;19.40;99.90
11136;DHT22;5622;50.840;4.948;2023-07-30T09:58:29;19.40;99.90
11136;DHT22;5622;50.840;4.948;2023-07-30T10:00:58;19.30;99.90
11136;DHT22;5622;50.840;4.948;2023-07-30T10:03:26;19.20;99.90
11136;DHT22;5622;50.840;4.948;2023-07-30T10:05:57;19.10;99.90
11136;DHT22;5622;50.840;4.948;2023-07-30T10:08:31;18.90;99.90
11136;DHT22;5622;50.840;4.948;2023-07-30T10:11:03;18.80;99.90
11136;DHT22;5622;50.840;4.948;2023-07-30T10:13:32;18.60;99.90
11136;DHT22;5622;50.840;4.948;2023-07-30T10:16:00;18.50;99.90
11136;DHT22;5622;50.840;4.948;2023-07-30T10:18:33;18.60;99.90
11136;DHT22;5622;50.840;4.948;2023-07-30T10:21:01;18.50;99.90
11136;DHT22;5622;50.840;4.948;2023-07-30T10:23:29;18.60;99.90
11136;DHT22;5622;50.840;4.948;2023-07-30T10:25:59;18.60;99.90
11136;DHT22;5622;50.840;4.948;2023-07-30T10:28:37;18.70;99.90
11136;DHT22;5622;50.840;4.948;2023-07-30T10:31:06;18.70;99.90
11136;DHT22;5622;50.840;4.948;2023-07-30T10:33:46;18.70;99.90
11136;DHT22;5622;50.840;4.948;2023-07-30T10:36:14;18.70;99.90
11136;DHT22;5622;50.840;4.948;2023-07-30T10:38:43;18.80;99.90
11136;DHT22;5622;50.840;4.948;2023-07-30T10:41:13;18.80;99.90
11136;DHT22;5622;50.840;4.948;2023-07-30T10:43:46;18.70;99.90
11136;DHT22;5622;50.840;4.948;2023-07-30T10:46:15;19.00;99.90
11136;DHT22;5622;50.840;4.948;2023-07-30T10:48:44;18.80;99.90
11136;DHT22;5622;50.840;4.948;2023-07-30T10:51:12;18.90;99.90
11136;DHT22;5622;50.840;4.948;2023-07-30T10:53:42;18.90;99.90
11136;DHT22;5622;50.840;4.948;2023-07-30T10:56:10;19.00;99.90
11136;DHT22;5622;50.840;4.948;2023-07-30T10:58:38;19.10;99.90
11136;DHT22;5622;50.840;4.948;2023-07-30T11:01:08;19.30;99.90
11136;DHT22;5622;50.840;4.948;2023-07-30T11:03:36;19.40;99.90
11136;DHT22;5622;50.840;4.948;2023-07-30T11:06:03;19.60;99.90
11136;DHT22;5622;50.840;4.948;2023-07-30T11:08:34;19.70;99.90
11136;DHT22;5622;50.840;4.948;2023-07-30T11:11:02;19.70;99.90
11136;DHT22;5622;50.840;4.948;2023-07-30T11:13:29;19.80;99.90
11136;DHT22;5622;50.840;4.948;2023-07-30T11:15:56;19.90;99.90
11136;DHT22;5622;50.840;4.948;2023-07-30T11:18:25;20.00;99.90
11136;DHT22;5622;50.840;4.948;2023-07-30T11:21:02;20.20;99.90
11136;DHT22;5622;50.840;4.948;2023-07-30T11:23:30;20.20;99.90
11136;DHT22;5622;50.840;4.948;2023-07-30T11:25:57;20.20;99.90
11136;DHT22;5622;50.840;4.948;2023-07-30T11:28:31;20.10;99.90
11136;DHT22;5622;50.840;4.948;2023-07-30T11:30:59;20.00;99.90
11136;DHT22;5622;50.840;4.948;2023-07-30T11:33:28;19.90;99.90
11136;DHT22;5622;50.840;4.948;2023-07-30T11:35:56;19.80;99.90
11136;DHT22;5622;50.840;4.948;2023-07-30T11:38:24;19.70;99.90
11136;DHT22;5622;50.840;4.948;2023-07-30T11:40:52;19.60;99.90
11136;DHT22;5622;50.840;4.948;2023-07-30T11:43:20;19.50;99.90
11136;DHT22;5622;50.840;4.948;2023-07-30T11:45:48;19.50;99.90
11136;DHT22;5622;50.840;4.948;2023-07-30T11:48:15;19.50;99.90
11136;DHT22;5622;50.840;4.948;2023-07-30T11:50:45;19.60;99.90
11136;DHT22;5622;50.840;4.948;2023-07-30T11:53:13;19.70;99.90
11136;DHT22;5622;50.840;4.948;2023-07-30T11:55:42;19.90;99.90
11136;DHT22;5622;50.840;4.948;2023-07-30T11:58:10;20.10;99.90
11136;DHT22;5622;50.840;4.948;2023-07-30T12:00:38;20.20;99.90
11136;DHT22;5622;50.840;4.948;2023-07-30T12:03:08;20.30;99.90
11136;DHT22;5622;50.840;4.948;2023-07-30T12:05:37;20.40;99.90
11136;DHT22;5622;50.840;4.948;2023-07-30T12:08:12;20.50;99.90
11136;DHT22;5622;50.840;4.948;2023-07-30T12:10:43;20.60;99.90
11136;DHT22;5622;50.840;4.948;2023-07-30T12:13:16;20.80;99.90
11136;DHT22;5622;50.840;4.948;2023-07-30T12:15:46;20.80;99.90
11136;DHT22;5622;50.840;4.948;2023-07-30T12:18:17;20.80;99.90
11136;DHT22;5622;50.840;4.948;2023-07-30T12:20:44;20.80;99.90
11136;DHT22;5622;50.840;4.948;2023-07-30T12:23:13;20.90;99.90
11136;DHT22;5622;50.840;4.948;2023-07-30T12:25:40;20.90;99.90
11136;DHT22;5622;50.840;4.948;2023-07-30T12:28:07;20.90;99.90
11136;DHT22;5622;50.840;4.948;2023-07-30T12:30:34;20.90;99.90
11136;DHT22;5622;50.840;4.948;2023-07-30T12:33:02;20.90;99.90
11136;DHT22;5622;50.840;4.948;2023-07-30T12:35:29;20.80;99.90
11136;DHT22;5622;50.840;4.948;2023-07-30T12:37:57;20.80;99.90
11136;DHT22;5622;50.840;4.948;2023-07-30T12:40:26;20.70;99.90
11136;DHT22;5622;50.840;4.948;2023-07-30T12:42:55;20.70;99.90
11136;DHT22;5622;50.840;4.948;2023-07-30T12:45:23;20.70;99.90
11136;DHT22;5622;50.840;4.948;2023-07-30T12:47:50;20.70;99.90
11136;DHT22;5622;50.840;4.948;2023-07-30T12:50:17;20.70;99.90
11136;DHT22;5622;50.840;4.948;2023-07-30T12:52:44;20.70;99.90
11136;DHT22;5622;50.840;4.948;2023-07-30T12:55:12;20.70;99.90
11136;DHT22;5622;50.840;4.948;2023-07-30T12:57:40;20.70;99.90
11136;DHT22;5622;50.840;4.948;2023-07-30T13:00:08;20.70;99.90
11136;DHT22;5622;50.840;4.948;2023-07-30T13:02:35;20.80;99.90
11136;DHT22;5622;50.840;4.948;2023-07-30T13:05:03;20.80;99.90
11136;DHT22;5622;50.840;4.948;2023-07-30T13:07:30;20.80;99.90
11136;DHT22;5622;50.840;4.948;2023-07-30T13:10:05;20.80;99.90
11136;DHT22;5622;50.840;4.948;2023-07-30T13:12:32;20.90;99.90
11136;DHT22;5622;50.840;4.948;2023-07-30T13:15:02;21.00;99.90
11136;DHT22;5622;50.840;4.948;2023-07-30T13:17:29;21.00;99.90
11136;DHT22;5622;50.840;4.948;2023-07-30T13:19:57;21.10;99.90
11136;DHT22;5622;50.840;4.948;2023-07-30T13:22:24;21.00;99.90
11136;DHT22;5622;50.840;4.948;2023-07-30T13:24:51;21.10;99.90
11136;DHT22;5622;50.840;4.948;2023-07-30T13:27:19;21.20;99.90
11136;DHT22;5622;50.840;4.948;2023-07-30T13:29:46;21.20;99.90
11136;DHT22;5622;50.840;4.948;2023-07-30T13:32:15;21.20;99.90
11136;DHT22;5622;50.840;4.948;2023-07-30T13:34:43;21.20;99.90
11136;DHT22;5622;50.840;4.948;2023-07-30T13:37:10;21.10;99.90
11136;DHT22;5622;50.840;4.948;2023-07-30T13:39:37;21.10;99.90
11136;DHT22;5622;50.840;4.948;2023-07-30T13:42:05;21.10;99.90
11136;DHT22;5622;50.840;4.948;2023-07-30T13:44:32;21.20;99.90
11136;DHT22;5622;50.840;4.948;2023-07-30T13:46:59;21.10;99.90
11136;DHT22;5622;50.840;4.948;2023-07-30T13:49:27;21.10;99.90
11136;DHT22;5622;50.840;4.948;2023-07-30T13:51:55;21.10;99.90
11136;DHT22;5622;50.840;4.948;2023-07-30T13:54:22;21.20;99.90
11136;DHT22;5622;50.840;4.948;2023-07-30T13:56:49;21.20;99.90
11136;DHT22;5622;50.840;4.948;2023-07-30T13:59:16;21.20;99.90
11136;DHT22;5622;50.840;4.948;2023-07-30T14:01:43;21.30;99.90
11136;DHT22;5622;50.840;4.948;2023-07-30T14:04:10;21.30;99.90
11136;DHT22;5622;50.840;4.948;2023-07-30T14:06:39;21.40;99.30
11136;DHT22;5622;50.840;4.948;2023-07-30T14:09:06;21.40;99.40
11136;DHT22;5622;50.840;4.948;2023-07-30T14:11:33;21.30;99.90
11136;DHT22;5622;50.840;4.948;2023-07-30T14:14:00;21.30;99.90
11136;DHT22;5622;50.840;4.948;2023-07-30T14:16:27;21.40;99.90
11136;DHT22;5622;50.840;4.948;2023-07-30T14:18:54;21.40;99.90
11136;DHT22;5622;50.840;4.948;2023-07-30T14:21:21;21.40;99.90
11136;DHT22;5622;50.840;4.948;2023-07-30T14:23:50;21.40;99.90
11136;DHT22;5622;50.840;4.948;2023-07-30T14:26:17;21.40;99.90
11136;DHT22;5622;50.840;4.948;2023-07-30T14:28:44;21.50;99.90
11136;DHT22;5622;50.840;4.948;2023-07-30T14:31:11;21.50;99.20
11136;DHT22;5622;50.840;4.948;2023-07-30T14:33:40;21.50;99.40
11136;DHT22;5622;50.840;4.948;2023-07-30T14:36:07;21.60;98.00
11136;DHT22;5622;50.840;4.948;2023-07-30T14:38:36;21.60;98.50
11136;DHT22;5622;50.840;4.948;2023-07-30T14:41:05;21.60;98.00
11136;DHT22;5622;50.840;4.948;2023-07-30T14:43:34;21.60;97.70
11136;DHT22;5622;50.840;4.948;2023-07-30T14:46:01;21.60;98.40
11136;DHT22;5622;50.840;4.948;2023-07-30T14:48:28;21.60;98.80
11136;DHT22;5622;50.840;4.948;2023-07-30T14:50:55;21.60;99.00
11136;DHT22;5622;50.840;4.948;2023-07-30T14:53:22;21.60;99.30
11136;DHT22;5622;50.840;4.948;2023-07-30T14:55:49;21.50;99.40
11136;DHT22;5622;50.840;4.948;2023-07-30T14:58:18;21.50;99.20
11136;DHT22;5622;50.840;4.948;2023-07-30T15:00:45;21.40;99.90
11136;DHT22;5622;50.840;4.948;2023-07-30T15:03:12;21.40;99.90
11136;DHT22;5622;50.840;4.948;2023-07-30T15:05:39;21.40;99.90
11136;DHT22;5622;50.840;4.948;2023-07-30T15:08:06;21.50;99.90
11136;DHT22;5622;50.840;4.948;2023-07-30T15:10:34;21.60;99.90
11136;DHT22;5622;50.840;4.948;2023-07-30T15:13:01;21.50;99.90
11136;DHT22;5622;50.840;4.948;2023-07-30T15:15:29;21.50;99.90
11136;DHT22;5622;50.840;4.948;2023-07-30T15:17:56;21.60;99.90
11136;DHT22;5622;50.840;4.948;2023-07-30T15:20:23;21.50;99.90
11136;DHT22;5622;50.840;4.948;2023-07-30T15:22:51;21.50;99.90
11136;DHT22;5622;50.840;4.948;2023-07-30T15:25:19;21.40;99.90
11136;DHT22;5622;50.840;4.948;2023-07-30T15:27:46;21.40;99.90
11136;DHT22;5622;50.840;4.948;2023-07-30T15:30:13;21.40;99.90
11136;DHT22;5622;50.840;4.948;2023-07-30T15:32:43;21.30;99.90
11136;DHT22;5622;50.840;4.948;2023-07-30T15:35:10;21.30;99.90
11136;DHT22;5622;50.840;4.948;2023-07-30T15:37:38;21.30;99.90
11136;DHT22;5622;50.840;4.948;2023-07-30T15:40:06;21.20;99.90
11136;DHT22;5622;50.840;4.948;2023-07-30T15:42:33;21.10;99.90
11136;DHT22;5622;50.840;4.948;2023-07-30T15:45:01;20.90;99.90
11136;DHT22;5622;50.840;4.948;2023-07-30T15:47:29;20.80;99.90